Time;durP1;ratioP1;P1;durP2;ratioP2;P2;SDS_P1;SDS_P2;PMS_P1;PMS_P2;Temp;Humidity;BMP_temperature;BMP_pressure;BME280_temperature;BME280_humidity;BME280_pressure;Samples;Min_cycle;Max_cycle;Signal;HPM_P1;HPM_P2
2023/06/23 00:00:31;;;;;;;8.63;4.15;;;;;;;;;;5053736;28;20045;-64
2023/06/23 00:02:57;;;;;;;6.28;3.95;;;;;;;;;;5052569;28;20044;-64
2023/06/23 00:05:27;;;;;;;6.82;4.40;;;;;;;;;;5052197;28;20044;-66
2023/06/23 00:07:53;;;;;;;4.35;3.33;;;;;;;;;;5052060;28;20083;-64
2023/06/23 00:10:19;;;;;;;6.07;3.83;;;;;;;;;;5035380;28;20095;-64
2023/06/23 00:12:46;;;;;;;7.53;4.47;;;;;;;;;;5035427;28;20056;-63
2023/06/23 00:15:14;;;;;;;7.72;4.70;;;;;;;;;;5051994;28;20040;-64
2023/06/23 00:17:41;;;;;;;6.72;4.25;;;;;;;;;;5052146;28;20053;-64
2023/06/23 00:20:10;;;;;;;5.43;4.10;;;;;;;;;;5051754;28;20045;-64
2023/06/23 00:22:36;;;;;;;5.90;4.25;;;;;;;;;;5052048;28;20052;-64
2023/06/23 00:25:03;;;;;;;7.68;4.03;;;;;;;;;;5051963;28;20049;-64
2023/06/23 00:27:29;;;;;;;8.27;4.28;;;;;;;;;;5051579;28;20070;-64
2023/06/23 00:29:55;;;;;;;8.73;4.95;;;;;;;;;;5051738;28;20123;-64
2023/06/23 00:32:21;;;;;;;6.43;4.47;;;;;;;;;;5052974;28;20512;-63
2023/06/23 00:34:47;;;;;;;6.78;4.60;;;;;;;;;;5051635;28;20052;-64
2023/06/23 00:37:13;;;;;;;10.68;4.85;;;;;;;;;;5051587;28;20119;-64
2023/06/23 00:39:39;;;;;;;8.98;4.75;;;;;;;;;;5052818;28;20479;-64
2023/06/23 00:42:08;;;;;;;5.05;3.55;;;;;;;;;;5052437;28;20041;-64
2023/06/23 00:44:34;;;;;;;6.75;4.28;;;;;;;;;;5051374;28;20128;-64
2023/06/23 00:47:03;;;;;;;9.68;4.88;;;;;;;;;;5051789;28;20453;-64
2023/06/23 00:49:30;;;;;;;7.50;4.43;;;;;;;;;;5052918;28;20041;-64
2023/06/23 00:51:56;;;;;;;5.00;3.97;;;;;;;;;;5052897;28;20374;-62
2023/06/23 00:54:23;;;;;;;10.18;4.50;;;;;;;;;;5051152;28;20091;-64
2023/06/23 00:56:50;;;;;;;6.60;3.75;;;;;;;;;;5051602;28;20045;-64
2023/06/23 00:59:16;;;;;;;7.07;4.68;;;;;;;;;;5052829;28;20120;-64
2023/06/23 01:01:42;;;;;;;7.45;3.88;;;;;;;;;;5052713;28;20053;-64
2023/06/23 01:04:08;;;;;;;5.75;3.92;;;;;;;;;;5052499;28;20524;-64
2023/06/23 01:06:37;;;;;;;5.43;3.55;;;;;;;;;;5051383;28;20059;-63
2023/06/23 01:09:23;;;;;;;4.47;3.20;;;;;;;;;;5051154;28;20041;-63
2023/06/23 01:11:58;;;;;;;5.05;3.17;;;;;;;;;;5021131;28;20154;-64
2023/06/23 01:14:30;;;;;;;6.65;2.80;;;;;;;;;;5051368;28;20045;-64
2023/06/23 01:17:04;;;;;;;4.30;2.90;;;;;;;;;;5051040;28;20080;-63
2023/06/23 01:19:43;;;;;;;4.93;3.42;;;;;;;;;;5051043;28;20041;-63
2023/06/23 01:22:18;;;;;;;4.70;2.88;;;;;;;;;;5051319;28;20044;-63
2023/06/23 01:25:00;;;;;;;5.35;3.28;;;;;;;;;;5051012;28;20381;-63
2023/06/23 01:27:49;;;;;;;6.00;3.60;;;;;;;;;;5050837;28;20048;-63
2023/06/23 01:30:17;;;;;;;7.28;4.38;;;;;;;;;;5051000;28;20090;-63
2023/06/23 01:32:52;;;;;;;4.40;3.13;;;;;;;;;;5052182;28;20176;-63
2023/06/23 01:35:26;;;;;;;3.95;2.92;;;;;;;;;;5050966;28;20044;-69
2023/06/23 01:37:54;;;;;;;5.82;3.83;;;;;;;;;;5052452;28;20053;-63
2023/06/23 01:40:22;;;;;;;6.43;3.72;;;;;;;;;;5052302;28;20480;-63
2023/06/23 01:42:59;;;;;;;4.50;3.42;;;;;;;;;;5050805;28;20041;-63
2023/06/23 01:45:29;;;;;;;5.95;4.05;;;;;;;;;;5034502;28;20400;-62
2023/06/23 01:47:57;;;;;;;3.60;3.00;;;;;;;;;;5051070;28;20396;-63
2023/06/23 01:50:23;;;;;;;5.72;3.53;;;;;;;;;;5051950;28;20126;-63
2023/06/23 01:52:51;;;;;;;4.45;3.55;;;;;;;;;;5051355;28;20461;-63
2023/06/23 01:55:17;;;;;;;5.90;3.38;;;;;;;;;;5055966;28;20131;-62
2023/06/23 01:57:45;;;;;;;5.97;3.53;;;;;;;;;;5054737;28;20045;-63
2023/06/23 02:00:13;;;;;;;4.18;2.95;;;;;;;;;;5054736;28;20459;-64
2023/06/23 02:02:46;;;;;;;4.97;3.05;;;;;;;;;;5054469;28;20065;-64
2023/06/23 02:05:13;;;;;;;3.63;3.10;;;;;;;;;;5056230;28;20080;-63
2023/06/23 02:07:41;;;;;;;4.82;3.42;;;;;;;;;;5037902;28;20404;-62
2023/06/23 02:10:07;;;;;;;3.92;3.05;;;;;;;;;;5054553;28;20052;-63
2023/06/23 02:12:35;;;;;;;6.43;3.22;;;;;;;;;;5054203;28;20045;-63
2023/06/23 02:15:03;;;;;;;4.63;3.03;;;;;;;;;;5037929;28;20485;-63
2023/06/23 02:17:29;;;;;;;11.80;3.15;;;;;;;;;;5054111;28;20048;-62
2023/06/23 02:19:56;;;;;;;4.50;2.65;;;;;;;;;;5055645;28;20392;-62
2023/06/23 02:22:23;;;;;;;4.78;2.97;;;;;;;;;;5037385;28;20408;-63
2023/06/23 02:24:50;;;;;;;5.05;3.08;;;;;;;;;;5037721;28;20036;-64
2023/06/23 02:27:17;;;;;;;5.28;2.90;;;;;;;;;;5054019;28;20075;-63
2023/06/23 02:29:43;;;;;;;4.00;3.05;;;;;;;;;;5055428;28;20103;-63
2023/06/23 02:32:16;;;;;;;2.97;2.50;;;;;;;;;;5055568;28;20044;-62
2023/06/23 02:34:43;;;;;;;2.67;2.10;;;;;;;;;;5053933;28;20049;-63
2023/06/23 02:37:09;;;;;;;6.40;2.58;;;;;;;;;;5054059;28;20079;-62
2023/06/23 02:39:38;;;;;;;3.92;2.67;;;;;;;;;;5053698;28;20091;-62
2023/06/23 02:42:05;;;;;;;6.25;2.63;;;;;;;;;;5054892;28;20045;-62
2023/06/23 02:44:35;;;;;;;3.85;2.30;;;;;;;;;;5055216;28;20451;-63
2023/06/23 02:47:02;;;;;;;5.22;2.65;;;;;;;;;;5055240;28;20112;-62
2023/06/23 02:49:30;;;;;;;5.13;2.65;;;;;;;;;;5053554;28;20125;-62
2023/06/23 02:51:58;;;;;;;6.05;2.65;;;;;;;;;;5053899;28;20060;-62
2023/06/23 02:54:25;;;;;;;3.42;2.35;;;;;;;;;;5054687;28;20062;-62
2023/06/23 02:56:54;;;;;;;3.38;2.15;;;16.60;99.90;;;;;;5055012;28;20053;-63
2023/06/23 02:59:21;;;;;;;2.92;1.85;;;16.50;99.90;;;;;;5053333;28;20051;-62
2023/06/23 03:01:52;;;;;;;6.82;2.83;;;16.50;99.90;;;;;;5054752;28;20119;-62
2023/06/23 03:04:18;;;;;;;3.55;2.38;;;16.20;99.90;;;;;;5054690;28;20037;-62
2023/06/23 03:06:47;;;;;;;4.93;2.58;;;16.40;99.90;;;;;;5053290;28;20040;-62
2023/06/23 03:09:12;;;;;;;3.22;1.98;;;16.40;99.90;;;;;;5054462;28;20112;-62
2023/06/23 03:11:38;;;;;;;3.55;2.55;;;16.40;99.90;;;;;;5053221;28;20072;-63
2023/06/23 03:14:04;;;;;;;3.53;2.38;;;16.40;99.90;;;;;;5054398;28;20041;-62
2023/06/23 03:16:53;;;;;;;3.70;2.33;;;16.20;99.90;;;;;;5054680;28;20037;-62
2023/06/23 03:19:30;;;;;;;5.43;2.30;;;16.40;99.90;;;;;;5054307;28;20059;-63
2023/06/23 03:22:11;;;;;;;4.10;2.38;;;16.40;99.90;;;;;;5054224;28;20056;-63
2023/06/23 03:24:45;;;;;;;2.47;1.92;;;16.40;99.90;;;;;;5054293;28;20399;-62
2023/06/23 03:27:15;;;;;;;2.75;1.98;;;16.40;99.90;;;;;;5052989;28;20047;-62
2023/06/23 03:30:05;;;;;;;3.72;2.70;;;16.40;99.90;;;;;;5054111;28;20056;-63
2023/06/23 03:32:37;;;;;;;2.90;2.33;;;16.40;99.90;;;;;;5054006;28;20048;-62
2023/06/23 03:35:15;;;;;;;3.10;2.33;;;16.40;99.90;;;;;;5054039;28;20166;-62
2023/06/23 03:37:49;;;;;;;4.95;2.78;;;16.40;99.90;;;;;;5053004;28;20047;-62
2023/06/23 03:40:19;;;;;;;5.88;2.35;;;16.40;99.90;;;;;;5052621;28;20081;-62
2023/06/23 03:43:01;;;;;;;3.35;2.25;;;16.10;99.90;;;;;;5053850;28;20029;-62
2023/06/23 03:45:29;;;;;;;3.47;2.20;;;16.40;99.90;;;;;;5054145;28;20116;-62
2023/06/23 03:48:06;;;;;;;3.42;2.10;;;16.40;99.90;;;;;;5054011;28;20044;-63
2023/06/23 03:50:35;;;;;;;5.70;2.33;;;16.40;99.90;;;;;;5054072;28;20062;-63
2023/06/23 03:53:03;;;;;;;2.92;2.08;;;16.40;99.90;;;;;;5052234;28;20059;-62
2023/06/23 03:55:32;;;;;;;4.57;2.55;;;16.80;99.90;;;;;;5054180;28;20052;-62
2023/06/23 03:58:02;;;;;;;4.70;2.60;;;16.30;99.90;;;;;;5053913;28;20377;-62
2023/06/23 04:00:29;;;;;;;4.25;2.72;;;16.40;99.90;;;;;;5052249;28;20072;-62
2023/06/23 04:02:57;;;;;;;4.63;2.60;;;16.40;99.90;;;;;;5053433;28;20037;-62
2023/06/23 04:05:25;;;;;;;5.05;2.80;;;16.00;99.90;;;;;;5053385;28;20039;-63
2023/06/23 04:07:51;;;;;;;3.08;2.00;;;16.40;99.90;;;;;;5053658;28;20400;-63
2023/06/23 04:10:20;;;;;;;3.22;2.28;;;16.40;99.90;;;;;;5052184;28;20127;-62
2023/06/23 04:12:47;;;;;;;3.13;2.30;;;16.40;99.90;;;;;;5052135;28;20044;-62
2023/06/23 04:15:15;;;;;;;2.90;2.20;;;16.30;99.90;;;;;;5051943;28;20037;-62
2023/06/23 04:17:42;;;;;;;5.60;3.10;;;16.40;99.90;;;;;;5053114;28;20045;-62
2023/06/23 04:20:09;;;;;;;6.05;2.85;;;16.40;99.90;;;;;;5051932;28;20094;-62
2023/06/23 04:22:38;;;;;;;7.50;2.72;;;16.40;99.90;;;;;;5035541;28;20441;-62
2023/06/23 04:25:06;;;;;;;4.20;2.97;;;16.40;99.90;;;;;;5053448;28;20043;-63
2023/06/23 04:27:33;;;;;;;4.43;2.72;;;16.40;99.90;;;;;;5051993;28;20439;-63
2023/06/23 04:30:01;;;;;;;5.32;2.72;;;16.70;99.90;;;;;;5052062;28;20039;-63
2023/06/23 04:32:27;;;;;;;4.07;3.13;;;16.10;99.90;;;;;;5053004;28;20041;-64
2023/06/23 04:34:53;;;;;;;5.45;3.17;;;16.40;99.90;;;;;;5053316;28;20068;-63
2023/06/23 04:37:18;;;;;;;4.97;2.53;;;16.30;99.90;;;;;;5053232;28;20091;-64
2023/06/23 04:39:48;;;;;;;3.80;2.63;;;16.40;99.90;;;;;;5053091;28;20033;-63
2023/06/23 04:42:21;;;;;;;3.43;2.23;;;16.40;99.90;;;;;;5052820;28;20094;-63
2023/06/23 04:44:53;;;;;;;3.53;2.53;;;16.30;99.90;;;;;;5053077;28;20435;-63
2023/06/23 04:47:22;;;;;;;4.32;3.22;;;16.40;99.90;;;;;;5051822;28;20037;-63
2023/06/23 04:49:54;;;;;;;5.07;2.83;;;16.10;99.90;;;;;;5051774;28;21004;-64
2023/06/23 04:52:22;;;;;;;3.85;2.55;;;16.50;99.90;;;;;;5052859;28;20044;-63
2023/06/23 04:54:51;;;;;;;4.88;2.53;;;16.50;99.90;;;;;;5052539;28;20045;-63
2023/06/23 04:57:21;;;;;;;5.43;2.45;;;16.50;99.90;;;;;;5051792;28;20484;-63
2023/06/23 04:59:51;;;;;;;3.30;2.47;;;16.70;99.90;;;;;;5052997;28;20037;-63
2023/06/23 05:02:19;;;;;;;5.72;3.05;;;16.50;99.90;;;;;;5052692;28;20048;-63
2023/06/23 05:04:47;;;;;;;4.47;2.95;;;16.50;99.90;;;;;;5052752;28;20083;-63
2023/06/23 05:07:16;;;;;;;3.28;2.47;;;17.20;99.90;;;;;;5052873;28;20035;-64
2023/06/23 05:09:46;;;;;;;4.10;2.50;;;16.60;99.90;;;;;;5051528;28;20080;-63
2023/06/23 05:12:15;;;;;;;2.15;1.80;;;16.50;99.90;;;;;;5052829;28;20383;-64
2023/06/23 05:14:43;;;;;;;5.32;3.17;;;16.60;99.90;;;;;;5051200;28;20106;-63
2023/06/23 05:17:10;;;;;;;4.50;2.22;;;17.20;99.90;;;;;;5052491;28;20412;-64
2023/06/23 05:19:39;;;;;;;5.45;2.67;;;16.60;99.90;;;;;;5052343;28;20041;-63
2023/06/23 05:22:08;;;;;;;4.80;3.00;;;16.60;99.90;;;;;;5052649;28;20041;-63
2023/06/23 05:24:42;;;;;;;6.22;3.28;;;16.50;99.90;;;;;;5051158;28;20051;-63
2023/06/23 05:27:10;;;;;;;5.65;2.85;;;16.70;99.90;;;;;;5052352;28;20040;-62
2023/06/23 05:29:39;;;;;;;7.22;3.22;;;16.70;99.90;;;;;;5054626;28;20084;-62
2023/06/23 05:32:17;;;;;;;4.77;2.50;;;17.30;99.90;;;;;;5056773;28;20437;-63
2023/06/23 05:34:48;;;;;;;5.18;3.25;;;17.10;99.90;;;;;;5056326;28;20669;-63
2023/06/23 05:37:19;;;;;;;4.15;2.92;;;16.80;99.90;;;;;;5056626;28;20139;-63
2023/06/23 05:39:46;;;;;;;4.35;3.03;;;16.70;99.90;;;;;;5056284;28;20033;-62
2023/06/23 05:42:12;;;;;;;4.82;3.28;;;16.80;99.90;;;;;;5056095;28;20037;-63
2023/06/23 05:44:38;;;;;;;5.45;3.38;;;17.00;99.90;;;;;;5056441;28;20132;-63
2023/06/23 05:47:09;;;;;;;4.03;2.60;;;16.70;99.90;;;;;;5056405;28;20431;-61
2023/06/23 05:49:40;;;;;;;5.13;3.15;;;16.70;99.90;;;;;;5056333;28;20033;-62
2023/06/23 05:52:11;;;;;;;13.20;2.80;;;16.80;99.90;;;;;;5056017;28;20052;-62
2023/06/23 05:54:39;;;;;;;4.03;2.88;;;16.90;99.90;;;;;;5054845;28;20413;-64
2023/06/23 05:57:11;;;;;;;7.30;2.83;;;16.90;99.90;;;;;;5054996;28;20056;-62
2023/06/23 05:59:42;;;;;;;5.07;3.47;;;16.70;99.90;;;;;;5056138;28;20047;-61
2023/06/23 06:02:21;;;;;;;4.50;2.80;;;16.70;99.90;;;;;;5056216;28;20040;-62
2023/06/23 06:04:55;;;;;;;3.83;3.08;;;17.20;99.90;;;;;;5056145;28;20393;-62
2023/06/23 06:07:22;;;;;;;4.78;2.80;;;16.60;99.90;;;;;;5056036;28;20040;-63
2023/06/23 06:09:49;;;;;;;4.05;2.65;;;16.70;99.90;;;;;;5054749;28;20060;-63
2023/06/23 06:12:16;;;;;;;3.92;2.65;;;16.80;99.90;;;;;;5054634;28;20049;-62
2023/06/23 06:14:43;;;;;;;5.30;2.97;;;16.70;99.90;;;;;;5055625;28;20087;-63
2023/06/23 06:17:10;;;;;;;3.22;2.40;;;16.70;99.90;;;;;;5055650;28;20041;-63
2023/06/23 06:19:38;;;;;;;4.50;2.92;;;16.80;99.90;;;;;;5055716;28;20041;-62
2023/06/23 06:22:08;;;;;;;8.60;2.70;;;16.90;99.90;;;;;;5055765;28;20053;-62
2023/06/23 06:24:34;;;;;;;4.55;2.92;;;16.70;99.90;;;;;;5055704;28;20045;-62
2023/06/23 06:27:02;;;;;;;4.20;2.97;;;16.90;99.90;;;;;;5055697;28;20052;-62
2023/06/23 06:29:29;;;;;;;5.20;3.47;;;16.90;99.90;;;;;;5055629;28;20045;-63
2023/06/23 06:31:57;;;;;;;9.20;3.58;;;16.90;99.90;;;;;;5055696;28;20052;-63
2023/06/23 06:34:24;;;;;;;5.13;3.40;;;17.20;99.90;;;;;;5055432;28;20044;-63
2023/06/23 06:36:51;;;;;;;6.95;3.25;;;17.20;99.90;;;;;;5055497;28;20072;-62
2023/06/23 06:39:18;;;;;;;4.30;2.88;;;16.90;99.90;;;;;;5054903;28;20041;-62
2023/06/23 06:41:45;;;;;;;4.85;3.17;;;;;;;;;;5055230;28;20040;-62
2023/06/23 06:44:10;;;;;;;3.58;2.70;;;17.50;99.90;;;;;;5055110;28;20036;-62
2023/06/23 06:46:39;;;;;;;5.20;2.70;;;18.00;99.90;;;;;;5053745;28;20067;-62
2023/06/23 06:49:05;;;;;;;4.13;3.00;;;17.80;99.90;;;;;;5055242;28;20033;-62
2023/06/23 06:51:32;;;;;;;3.67;2.95;;;18.00;99.90;;;;;;5054888;28;20045;-62
2023/06/23 06:53:57;;;;;;;9.55;3.80;;;18.20;99.80;;;;;;5054660;28;20137;-62
2023/06/23 06:56:24;;;;;;;5.07;2.63;;;18.40;95.40;;;;;;5054709;28;20072;-62
2023/06/23 06:58:50;;;;;;;3.30;2.30;;;18.50;91.80;;;;;;5054799;28;20037;-62
2023/06/23 07:01:16;;;;;;;5.43;2.53;;;18.50;81.10;;;;;;5054988;28;20443;-62
2023/06/23 07:03:42;;;;;;;5.57;2.95;;;18.50;74.80;;;;;;5054959;28;20072;-62
2023/06/23 07:06:09;;;;;;;3.50;2.50;;;18.60;75.40;;;;;;5054617;28;20119;-62
2023/06/23 07:08:34;;;;;;;3.83;2.20;;;18.80;75.70;;;;;;5054863;28;20037;-62
2023/06/23 07:11:00;;;;;;;4.20;2.38;;;18.90;69.10;;;;;;5070032;28;20048;-62
2023/06/23 07:13:26;;;;;;;3.47;2.47;;;19.50;61.70;;;;;;5054788;28;20044;-62
2023/06/23 07:15:52;;;;;;;7.10;2.30;;;19.20;43.90;;;;;;5054776;28;20049;-63
2023/06/23 07:18:17;;;;;;;5.72;3.10;;;19.90;31.40;;;;;;5054777;28;20532;-62
2023/06/23 07:20:43;;;;;;;5.10;3.20;;;19.70;11.30;;;;;;5054209;28;20401;-62
2023/06/23 07:23:09;;;;;;;4.30;2.60;;;20.10;6.10;;;;;;5054236;28;20162;-62
2023/06/23 07:25:35;;;;;;;8.52;3.33;;;20.00;1.00;;;;;;5052998;28;20036;-62
2023/06/23 07:28:00;;;;;;;5.45;2.20;;;20.20;1.00;;;;;;5054480;28;20526;-63
2023/06/23 07:30:26;;;;;;;5.15;2.63;;;20.10;1.00;;;;;;5054153;28;20051;-64
2023/06/23 07:32:52;;;;;;;3.85;2.45;;;20.50;1.00;;;;;;5053216;28;20484;-64
2023/06/23 07:35:17;;;;;;;2.90;1.98;;;20.50;99.90;;;;;;5054385;28;20041;-63
2023/06/23 07:37:43;;;;;;;3.72;2.55;;;21.20;99.90;;;;;;5054257;28;20396;-63
2023/06/23 07:40:09;;;;;;;2.33;1.80;;;21.30;99.90;;;;;;5054236;28;20079;-63
2023/06/23 07:42:35;;;;;;;3.20;1.98;;;20.70;65.80;;;;;;5054167;28;20037;-63
2023/06/23 07:45:01;;;;;;;3.90;2.60;;;20.90;3.70;;;;;;5053864;28;20071;-63
2023/06/23 07:47:26;;;;;;;3.55;2.13;;;21.20;1.00;;;;;;5053796;28;20041;-64
2023/06/23 07:49:53;;;;;;;3.35;2.35;;;;;;;;;;5053520;28;20035;-64
2023/06/23 07:52:19;;;;;;;4.93;2.22;;;;;;;;;;5052174;28;20056;-65
2023/06/23 07:54:44;;;;;;;3.55;1.88;;;21.20;99.90;;;;;;5053656;28;20087;-64
2023/06/23 07:57:11;;;;;;;3.22;2.17;;;21.20;99.90;;;;;;5053974;28;20045;-64
2023/06/23 07:59:37;;;;;;;3.13;1.90;;;21.20;99.90;;;;;;5054273;28;20086;-64
2023/06/23 08:02:03;;;;;;;3.83;2.38;;;21.30;1.00;;;;;;5053460;28;20045;-64
2023/06/23 08:04:29;;;;;;;5.57;2.10;;;21.40;1.00;;;;;;5053830;28;20040;-64
2023/06/23 08:06:55;;;;;;;4.13;2.05;;;21.60;99.90;;;;;;5053756;28;20044;-63
2023/06/23 08:09:20;;;;;;;2.53;1.73;;;21.40;99.90;;;;;;5053699;28;20044;-64
2023/06/23 08:11:46;;;;;;;2.97;2.00;;;21.30;99.90;;;;;;5052168;28;20053;-63
2023/06/23 08:14:12;;;;;;;3.00;2.13;;;21.60;99.90;;;;;;5053326;28;20463;-64
2023/06/23 08:16:38;;;;;;;3.15;1.98;;;21.70;99.90;;;;;;5053292;28;20056;-63
2023/06/23 08:19:03;;;;;;;4.05;2.30;;;21.70;55.30;;;;;;5053585;28;20127;-64
2023/06/23 08:21:30;;;;;;;2.75;2.20;;;;;;;;;;5053371;28;20116;-64
2023/06/23 08:23:57;;;;;;;5.22;2.50;;;22.00;99.90;;;;;;5053110;28;20045;-64
2023/06/23 08:26:23;;;;;;;5.13;1.95;;;22.60;99.90;;;;;;5053392;28;20041;-64
2023/06/23 08:28:49;;;;;;;4.65;2.45;;;22.20;99.90;;;;;;5053088;28;20079;-65
2023/06/23 08:31:14;;;;;;;3.08;2.20;;;22.30;99.90;;;;;;5053297;28;20435;-64
2023/06/23 08:33:40;;;;;;;2.85;1.60;;;22.40;99.90;;;;;;5053221;28;20480;-66
2023/06/23 08:36:06;;;;;;;3.53;2.10;;;22.40;99.90;;;;;;5053254;28;20540;-63
2023/06/23 08:38:31;;;;;;;2.35;1.90;;;22.60;99.90;;;;;;5053219;28;20049;-63
2023/06/23 08:40:58;;;;;;;3.53;1.85;;;22.60;99.90;;;;;;5051570;28;20452;-63
2023/06/23 08:43:26;;;;;;;4.10;2.13;;;22.50;99.90;;;;;;5053132;28;20044;-63
2023/06/23 08:46:04;;;;;;;7.50;1.90;;;22.70;94.80;;;;;;5053421;28;20059;-64
2023/06/23 08:48:31;;;;;;;3.88;1.80;;;22.70;90.90;;;;;;5053024;28;20400;-64
2023/06/23 08:51:00;;;;;;;2.75;1.63;;;22.70;71.80;;;;;;5053107;28;20048;-63
2023/06/23 08:53:26;;;;;;;3.90;2.00;;;22.70;71.00;;;;;;5052833;28;20060;-63
2023/06/23 08:55:53;;;;;;;2.30;1.65;;;22.80;91.00;;;;;;5051729;28;20049;-63
2023/06/23 08:58:20;;;;;;;2.25;1.77;;;22.50;70.60;;;;;;5053000;28;20156;-63
2023/06/23 09:00:47;;;;;;;3.33;2.15;;;22.70;46.80;;;;;;5052907;28;20049;-63
2023/06/23 09:03:13;;;;;;;2.55;1.55;;;22.90;37.00;;;;;;5052687;28;20167;-63
2023/06/23 09:05:41;;;;;;;2.80;1.85;;;22.90;33.50;;;;;;5052707;28;20548;-63
2023/06/23 09:08:07;;;;;;;2.42;1.40;;;23.00;34.70;;;;;;5051369;28;20052;-63
2023/06/23 09:10:32;;;;;;;2.75;1.77;;;23.00;20.80;;;;;;5052766;28;20510;-63
2023/06/23 09:13:07;;;;;;;2.42;1.50;;;23.90;28.50;;;;;;5052861;28;20123;-63
2023/06/23 09:15:37;;;;;;;1.65;1.35;;;23.10;8.20;;;;;;5051127;28;20134;-63
2023/06/23 09:18:04;;;;;;;2.17;1.63;;;23.20;20.40;;;;;;5051551;28;20056;-63
2023/06/23 09:20:33;;;;;;;2.72;1.58;;;23.70;95.30;;;;;;5051253;28;20087;-63
2023/06/23 09:22:59;;;;;;;2.83;2.00;;;23.50;99.90;;;;;;5052664;28;20048;-63
2023/06/23 09:25:42;;;;;;;2.30;1.52;;;23.60;85.00;;;;;;5052415;28;20116;-63
2023/06/23 09:28:36;;;;;;;1.98;1.33;;;23.50;6.20;;;;;;5052445;28;20420;-63
2023/06/23 09:31:13;;;;;;;2.75;1.90;;;23.60;10.40;;;;;;5052424;28;20037;-64
2023/06/23 09:33:45;;;;;;;3.55;2.03;;;23.60;4.00;;;;;;5051165;28;20397;-64
2023/06/23 09:36:11;;;;;;;1.35;1.15;;;23.60;1.00;;;;;;5052430;28;20433;-65
2023/06/23 09:38:38;;;;;;;2.78;1.95;;;23.70;4.70;;;;;;5052307;28;20124;-65
2023/06/23 09:41:13;;;;;;;2.20;1.58;;;23.80;6.20;;;;;;5052285;28;20033;-64
2023/06/23 09:43:40;;;;;;;3.35;2.47;;;23.80;7.40;;;;;;5051968;28;20037;-65
2023/06/23 09:46:08;;;;;;;2.55;1.60;;;23.90;1.40;;;;;;5052288;28;20045;-64
2023/06/23 09:48:33;;;;;;;3.22;1.98;;;23.80;4.40;;;;;;5050658;28;20048;-64
2023/06/23 09:51:01;;;;;;;4.45;1.60;;;23.80;1.00;;;;;;5051930;28;20041;-64
2023/06/23 09:53:31;;;;;;;2.92;1.80;;;23.70;1.00;;;;;;5051988;28;20496;-64
2023/06/23 09:55:57;;;;;;;2.03;1.40;;;24.00;1.70;;;;;;5052267;28;20052;-64
2023/06/23 09:58:23;;;;;;;3.53;2.15;;;23.80;1.00;;;;;;5052130;28;20045;-65
2023/06/23 10:01:00;;;;;;;2.88;2.13;;;23.50;1.00;;;;;;5051991;28;20396;-65
2023/06/23 10:03:28;;;;;;;3.25;2.22;;;23.70;1.00;;;;;;5051978;28;20389;-65
2023/06/23 10:05:57;;;;;;;3.47;2.03;;;23.70;5.40;;;;;;5051848;28;20041;-65
2023/06/23 10:08:23;;;;;;;3.97;1.90;;;23.70;1.00;;;;;;5051651;28;20037;-65
2023/06/23 10:10:49;;;;;;;3.28;2.13;;;23.70;1.00;;;;;;5051854;28;20396;-64
2023/06/23 10:13:15;;;;;;;2.85;2.17;;;23.70;1.00;;;;;;5051925;28;20120;-65
2023/06/23 10:15:42;;;;;;;3.97;2.38;;;23.70;1.00;;;;;;5055265;28;20120;-65
2023/06/23 10:18:11;;;;;;;3.38;1.85;;;24.30;1.00;;;;;;5055192;28;20090;-65
2023/06/23 10:20:38;;;;;;;4.22;1.63;;;23.80;1.00;;;;;;5055223;28;20083;-64
2023/06/23 10:23:04;;;;;;;3.35;2.03;;;23.80;1.00;;;;;;5055272;28;20444;-64
2023/06/23 10:25:34;;;;;;;2.97;1.75;;;23.90;1.00;;;;;;5055156;28;20033;-64
2023/06/23 10:28:04;;;;;;;3.95;1.90;;;24.50;1.00;;;;;;5054004;28;20056;-64
2023/06/23 10:30:30;;;;;;;2.78;1.95;;;24.10;1.00;;;;;;5055444;28;20087;-64
2023/06/23 10:32:57;;;;;;;2.28;2.00;;;24.50;1.00;;;;;;5037820;28;20072;-64
2023/06/23 10:35:24;;;;;;;5.10;2.20;;;24.10;1.00;;;;;;5053746;28;20056;-65
2023/06/23 10:37:59;;;;;;;3.55;2.38;;;24.20;1.00;;;;;;5055362;28;20044;-64
2023/06/23 10:40:26;;;;;;;3.25;1.92;;;24.30;1.00;;;;;;5053913;28;20044;-65
2023/06/23 10:42:54;;;;;;;4.07;2.38;;;24.30;1.00;;;;;;5054894;28;20087;-64
2023/06/23 10:45:19;;;;;;;3.05;2.13;;;24.20;1.00;;;;;;5055242;28;20037;-64
2023/06/23 10:47:45;;;;;;;4.07;2.58;;;24.10;1.00;;;;;;5054686;28;20485;-63
2023/06/23 10:50:12;;;;;;;3.80;2.13;;;24.60;1.00;;;;;;5054681;28;20234;-65
2023/06/23 10:52:38;;;;;;;3.25;1.90;;;25.00;1.00;;;;;;5054735;28;20052;-65
2023/06/23 10:55:34;;;;;;;2.85;1.80;;;24.10;1.00;;;;;;5054573;28;20412;-65
2023/06/23 10:58:26;;;;;;;3.00;2.13;;;24.00;1.00;;;;;;5053356;28;20045;-65
2023/06/23 11:00:58;;;;;;;2.90;2.10;;;24.00;1.00;;;;;;5051597;28;20060;-65
2023/06/23 11:03:35;;;;;;;3.25;1.70;;;24.00;1.00;;;;;;5054416;28;20052;-64
2023/06/23 11:06:09;;;;;;;2.10;1.60;;;24.10;1.00;;;;;;5053509;28;20115;-65
2023/06/23 11:08:44;;;;;;;3.22;1.95;;;24.10;1.00;;;;;;5054344;28;20036;-65
2023/06/23 11:11:15;;;;;;;2.42;1.25;;;24.30;1.00;;;;;;5053149;28;20047;-65
2023/06/23 11:13:49;;;;;;;2.40;1.60;;;24.30;1.00;;;;;;5054449;28;20119;-64
2023/06/23 11:16:25;;;;;;;4.82;2.28;;;24.40;1.00;;;;;;5054450;28;20447;-64
2023/06/23 11:18:54;;;;;;;2.70;1.88;;;24.60;1.00;;;;;;5054429;28;20404;-64
2023/06/23 11:21:28;;;;;;;2.33;1.48;;;24.50;1.00;;;;;;5054227;28;20041;-64
2023/06/23 11:24:19;;;;;;;2.78;1.58;;;24.50;1.00;;;;;;5054608;28;20043;-65
2023/06/23 11:26:52;;;;;;;2.55;1.55;;;24.50;1.00;;;;;;5054488;28;20041;-65
2023/06/23 11:29:21;;;;;;;3.03;1.83;;;24.70;1.00;;;;;;5054503;28;20043;-64
2023/06/23 11:32:15;;;;;;;2.67;1.80;;;24.70;1.00;;;;;;5054056;28;20048;-65
2023/06/23 11:34:59;;;;;;;2.92;1.90;;;24.70;1.00;;;;;;5054358;28;20133;-65
2023/06/23 11:37:28;;;;;;;2.55;1.92;;;24.90;1.00;;;;;;5054322;28;20052;-64
2023/06/23 11:39:55;;;;;;;2.40;1.63;;;24.70;1.00;;;;;;5053810;28;20049;-64
2023/06/23 11:42:22;;;;;;;3.08;1.58;;;24.70;1.00;;;;;;5052760;28;20077;-64
2023/06/23 11:44:48;;;;;;;3.30;1.40;;;24.80;1.00;;;;;;5053870;28;20037;-64
2023/06/23 11:47:14;;;;;;;2.17;1.70;;;24.90;1.00;;;;;;5054097;28;20072;-64
2023/06/23 11:49:40;;;;;;;2.00;1.52;;;24.90;1.00;;;;;;5054069;28;20428;-64
2023/06/23 11:52:07;;;;;;;5.15;1.80;;;24.70;1.00;;;;;;5052800;28;20124;-65
2023/06/23 11:54:35;;;;;;;2.03;1.63;;;24.60;1.00;;;;;;5052178;28;20080;-65
2023/06/23 11:57:04;;;;;;;2.47;1.52;;;24.60;1.00;;;;;;5053820;28;20148;-65
2023/06/23 11:59:37;;;;;;;4.90;1.80;;;24.70;1.00;;;;;;5053894;28;20029;-64
2023/06/23 12:02:04;;;;;;;2.53;1.92;;;25.20;1.00;;;;;;5053485;28;20067;-64
2023/06/23 12:04:34;;;;;;;1.83;1.35;;;24.90;1.00;;;;;;5053882;28;20393;-64
2023/06/23 12:07:00;;;;;;;2.53;1.60;;;24.90;1.00;;;;;;5053540;28;20044;-64
2023/06/23 12:09:26;;;;;;;2.63;1.85;;;25.00;1.00;;;;;;5051946;28;20048;-64
2023/06/23 12:11:54;;;;;;;3.33;1.40;;;24.90;1.00;;;;;;5053433;28;20086;-64
2023/06/23 12:14:31;;;;;;;1.58;1.40;;;24.70;1.00;;;;;;5053429;28;20094;-65
2023/06/23 12:17:10;;;;;;;2.17;1.42;;;24.90;1.00;;;;;;5053416;28;20047;-66
2023/06/23 12:19:37;;;;;;;3.97;1.92;;;;;;;;;;5052034;28;20489;-65
2023/06/23 12:22:03;;;;;;;2.53;1.80;;;25.00;1.00;;;;;;5051720;28;20446;-64
2023/06/23 12:24:32;;;;;;;2.38;1.80;;;25.10;1.00;;;;;;5052001;28;20041;-66
2023/06/23 12:27:00;;;;;;;1.80;1.40;;;25.00;1.00;;;;;;5053276;28;20373;-66
2023/06/23 12:29:30;;;;;;;2.65;1.48;;;24.90;1.00;;;;;;5053080;28;20039;-67
2023/06/23 12:31:57;;;;;;;2.60;1.63;;;25.90;1.00;;;;;;5053214;28;20484;-66
2023/06/23 12:34:34;;;;;;;2.92;1.45;;;25.40;1.00;;;;;;5051855;28;20044;-65
2023/06/23 12:37:05;;;;;;;3.33;1.58;;;25.00;1.00;;;;;;5051332;28;20393;-65
2023/06/23 12:39:32;;;;;;;2.42;1.70;;;25.00;1.00;;;;;;5053049;28;20231;-66
2023/06/23 12:41:58;;;;;;;2.78;2.03;;;24.90;1.00;;;;;;5051544;28;20052;-65
2023/06/23 12:44:27;;;;;;;2.20;1.70;;;25.00;1.00;;;;;;5052946;28;20036;-65
2023/06/23 12:46:54;;;;;;;2.13;1.58;;;25.00;1.00;;;;;;5051762;28;20112;-65
2023/06/23 12:49:27;;;;;;;2.65;1.65;;;25.00;1.00;;;;;;5052740;28;20077;-66
2023/06/23 12:51:52;;;;;;;3.25;1.73;;;24.90;1.00;;;;;;5052582;28;20051;-66
2023/06/23 12:54:18;;;;;;;2.15;1.50;;;25.00;1.00;;;;;;5052498;28;20056;-67
2023/06/23 12:56:43;;;;;;;1.83;1.42;;;25.10;1.00;;;;;;5034928;28;20550;-66
2023/06/23 12:59:09;;;;;;;3.05;1.52;;;25.20;1.00;;;;;;5051481;28;20105;-65
2023/06/23 13:01:36;;;;;;;2.67;1.80;;;25.20;1.00;;;;;;5052288;28;20098;-65
2023/06/23 13:04:02;;;;;;;2.20;1.30;;;25.30;1.00;;;;;;5052684;28;20056;-65
2023/06/23 13:06:28;;;;;;;3.22;1.67;;;25.20;1.00;;;;;;5052715;28;20037;-64
2023/06/23 13:08:54;;;;;;;2.72;1.42;;;25.20;1.00;;;;;;5051017;28;20045;-65
2023/06/23 13:11:21;;;;;;;1.60;1.30;;;25.20;1.00;;;;;;5051145;28;20045;-65
2023/06/23 13:13:48;;;;;;;2.03;1.35;;;25.10;1.00;;;;;;5034661;28;20481;-65
2023/06/23 13:16:16;;;;;;;2.03;1.30;;;25.40;1.00;;;;;;5052527;28;20040;-65
2023/06/23 13:18:41;;;;;;;3.00;1.80;;;25.40;1.00;;;;;;5052186;28;20080;-65
2023/06/23 13:21:07;;;;;;;3.58;1.70;;;25.40;1.00;;;;;;5052113;28;20084;-66
2023/06/23 13:23:32;;;;;;;2.28;1.40;;;25.30;1.00;;;;;;5052383;28;20033;-65